»·PEaware :: N4962L KMCC-KMCC

N4962L :: KMCC-KMCC

FLIGHT INFORMATION

Flight Status: Arrived
Operator: Privately registered:
United States
More flights under this callsign
Pilot: Juan S. (26712)
Aircraft: CESSNA 172 SKYHAWK
(C172)
More flights by this aircraft type
Origin: KMCC McClellan
United States
Destination: KMCC McClellan
United States
More flights between these airports :: More routes between these airports
Route: +
File this flight plan on PilotEdge
Remarks:
Altitude:
(Current/Filed)
1,500ft
Speed:
(Current/Filed)
0kts
Departed: 01-Feb-20 04:17 PM
Arrived: 01-Feb-20 05:14 PM
Distance/Time
Traveled:
0nm/0:57
Distance/Time
To Go:
Arrived

Flight Plot

Page will automatically refresh every two minutes.

Flight plan parsing failed; only flown route is shown


Map Options




Map Legend


Flown Route
Filed Route
Departure Airport
Arrival Airport
Navaid (VOR, NDB)
Fix

Horizontal Profiles

Position Reports

Time Latitude Longitude Heading Altitude Ground
Speed
01-Feb-20 16:16 38.759158 -121.298729 5 1639ft 105kts
01-Feb-20 16:17 38.788655 -121.292509 337 1637ft 111kts
01-Feb-20 16:18 38.799037 -121.328054 285 1722ft 108kts
01-Feb-20 16:19 38.806219 -121.366315 283 1754ft 110kts
01-Feb-20 16:20 38.812178 -121.405456 285 1745ft 112kts
01-Feb-20 16:21 38.794309 -121.422161 152 1727ft 119kts
01-Feb-20 16:22 38.764860 -121.403000 152 1777ft 120kts
01-Feb-20 16:23 38.733468 -121.399048 192 1114ft 104kts
01-Feb-20 16:24 38.705878 -121.400834 189 601ft 96kts
01-Feb-20 16:25 38.678417 -121.398837 171 945ft 104kts
01-Feb-20 16:26 38.656709 -121.379194 111 1713ft 106kts
01-Feb-20 16:27 38.664330 -121.347687 16 2117ft 109kts
01-Feb-20 16:27 38.688787 -121.338936 14 2152ft 111kts
01-Feb-20 16:29 38.722627 -121.322114 18 2163ft 112kts
01-Feb-20 16:30 38.751617 -121.317530 318 2165ft 110kts
01-Feb-20 16:30 38.769599 -121.340759 315 2158ft 111kts
01-Feb-20 16:31 38.791216 -121.368719 315 2153ft 109kts
01-Feb-20 16:33 38.784449 -121.398479 183 2132ft 119kts
01-Feb-20 16:33 38.759787 -121.401397 180 1588ft 99kts
01-Feb-20 16:34 38.733660 -121.399952 187 1114ft 98kts
01-Feb-20 16:35 38.706886 -121.400555 180 628ft 97kts
01-Feb-20 16:36 38.680434 -121.399923 176 829ft 91kts
01-Feb-20 16:37 38.656198 -121.402831 252 1802ft 96kts
01-Feb-20 16:38 38.673008 -121.406641 26 2367ft 93kts
01-Feb-20 16:39 38.701481 -121.402231 357 2362ft 110kts
01-Feb-20 16:40 38.732153 -121.400784 3 2333ft 109kts
01-Feb-20 16:41 38.762552 -121.400283 358 2315ft 109kts
01-Feb-20 16:42 38.792914 -121.400025 1 2318ft 112kts
01-Feb-20 16:43 38.819961 -121.383473 38 2412ft 111kts
01-Feb-20 16:44 38.847293 -121.367730 331 2305ft 114kts
01-Feb-20 16:45 38.835809 -121.392575 195 2347ft 117kts
01-Feb-20 16:46 38.803671 -121.400612 181 2365ft 119kts
01-Feb-20 16:47 38.792200 -121.374283 27 2350ft 113kts
01-Feb-20 16:48 38.822743 -121.373390 358 2365ft 111kts
01-Feb-20 16:49 38.833872 -121.396685 213 2355ft 117kts
01-Feb-20 16:50 38.801190 -121.396805 184 2403ft 117kts
01-Feb-20 16:51 38.784061 -121.372568 49 2347ft 117kts
01-Feb-20 16:52 38.813591 -121.369972 351 2383ft 111kts
01-Feb-20 16:53 38.837610 -121.386782 268 2352ft 114kts
01-Feb-20 16:54 38.810086 -121.397196 178 2348ft 120kts
01-Feb-20 16:55 38.785884 -121.377263 78 2350ft 118kts
01-Feb-20 16:56 38.812885 -121.368283 354 2345ft 110kts
01-Feb-20 16:57 38.842004 -121.375605 308 2383ft 110kts
01-Feb-20 16:58 38.824471 -121.396428 171 2346ft 119kts
01-Feb-20 16:59 38.792088 -121.391021 147 2384ft 121kts
01-Feb-20 17:00 38.800411 -121.364910 353 2350ft 111kts
01-Feb-20 17:01 38.830868 -121.370677 350 2381ft 109kts
01-Feb-20 17:02 38.834729 -121.398062 196 2370ft 117kts
01-Feb-20 17:03 38.802186 -121.392754 177 2405ft 118kts
01-Feb-20 17:04 38.790544 -121.366666 23 2348ft 115kts
01-Feb-20 17:05 38.821237 -121.369845 351 2361ft 111kts
01-Feb-20 17:06 38.839118 -121.393021 244 2339ft 116kts
01-Feb-20 17:07 38.808442 -121.395989 179 2361ft 117kts
01-Feb-20 17:08 38.778567 -121.396608 191 1969ft 94kts
01-Feb-20 17:09 38.754265 -121.401216 174 1469ft 94kts
01-Feb-20 17:10 38.729991 -121.400285 190 1128ft 88kts
01-Feb-20 17:11 38.704185 -121.400702 183 608ft 95kts
01-Feb-20 17:12 38.679793 -121.400598 181 90ft 73kts
01-Feb-20 17:13 38.663468 -121.400674 182 69ft 37kts

Navigation Log

Ident Type
Flight plan parsing failed, navigation log unavailable